Nortonville, Kentucky
Current Conditions -  °F | °C
As of 1:35 PM on Friday 24 Oct 2014 (Local Time) from K2I0 Reporting Station
Broken Clouds Broken Clouds  
Wind Chill: 69°   Ceiling: 4200
Heat Index: 69°   Visibility: 10mi
Dew Point: 49°   Wind: 5mph
Humidity: 49%   Direction: 290°WNW
Pressure: 30.09"   Gusts: NA
Location:  37.19°N, 87.45°W
Report Text: K2I0 241835Z AUTO 29004KT 10SM BKN042 21/09 A3009 RMK AO2 T02050093
Loading
Personal Weather Stations






























Interactive Weather Map
Tropical Storm Tracking
New forecast layout! Learn more

10-Day Weather Forecast

Advertisements
Track Severe Weather on mobile